createdAt,value
2019-03-21T00:00:18.465Z,34.20
2019-03-21T00:02:04.606Z,33.03
2019-03-21T00:03:40.905Z,31.73
2019-03-21T00:05:19.314Z,32.47
2019-03-21T00:06:55.751Z,33.60
2019-03-21T00:08:32.152Z,33.03
2019-03-21T00:10:34.392Z,32.97
2019-03-21T00:12:11.913Z,31.50
2019-03-21T00:13:48.146Z,33.67
2019-03-21T00:15:40.995Z,32.57
2019-03-21T00:17:43.704Z,31.80
2019-03-21T00:19:19.774Z,33.60
2019-03-21T00:20:56.070Z,35.47
2019-03-21T00:22:33.503Z,37.70
2019-03-21T00:24:10.787Z,36.17
2019-03-21T00:25:46.878Z,33.67
2019-03-21T00:27:23.136Z,34.27
2019-03-21T00:28:59.303Z,33.77
2019-03-21T00:30:35.297Z,32.47
2019-03-21T00:32:11.505Z,38.10
2019-03-21T00:33:48.012Z,41.03
2019-03-21T00:35:24.412Z,39.80
2019-03-21T00:37:00.686Z,39.87
2019-03-21T00:38:36.748Z,34.97
2019-03-21T00:40:26.447Z,31.17
2019-03-21T00:42:02.841Z,29.23
2019-03-21T00:43:38.926Z,27.97
2019-03-21T00:45:17.461Z,28.63
2019-03-21T00:46:53.555Z,28.37
2019-03-21T00:48:29.724Z,28.03
2019-03-21T00:50:13.382Z,27.93
2019-03-21T00:51:49.384Z,29.80
2019-03-21T00:53:25.446Z,29.00
2019-03-21T00:55:01.622Z,29.53
2019-03-21T00:56:37.681Z,29.73
2019-03-21T00:58:13.818Z,28.57
2019-03-21T00:59:50.124Z,29.40
2019-03-21T01:01:26.431Z,30.77
2019-03-21T01:03:04.231Z,29.13
2019-03-21T01:04:40.362Z,31.47
2019-03-21T01:06:16.525Z,31.53
2019-03-21T01:07:52.579Z,30.80
2019-03-21T01:09:28.719Z,31.63
2019-03-21T01:11:04.927Z,29.57
2019-03-21T01:12:40.985Z,31.00
2019-03-21T01:14:17.048Z,33.57
2019-03-21T01:15:53.234Z,29.47
2019-03-21T01:17:29.329Z,29.57
2019-03-21T01:19:05.636Z,28.60
2019-03-21T01:20:41.861Z,30.00
2019-03-21T01:22:17.863Z,27.40
2019-03-21T01:23:54.087Z,26.33
2019-03-21T01:25:44.101Z,26.13
2019-03-21T01:27:20.258Z,27.33
2019-03-21T01:28:56.351Z,28.87
2019-03-21T01:30:32.522Z,27.20
2019-03-21T01:32:08.520Z,24.67
2019-03-21T01:33:44.767Z,25.33
2019-03-21T01:35:20.934Z,25.07
2019-03-21T01:36:57.100Z,23.57
2019-03-21T01:38:33.183Z,24.27
2019-03-21T01:40:16.613Z,24.77
2019-03-21T01:41:52.747Z,23.90
2019-03-21T01:43:28.806Z,23.47
2019-03-21T01:45:11.052Z,22.47
2019-03-21T01:46:47.300Z,24.23
2019-03-21T01:48:23.431Z,24.40
2019-03-21T01:49:59.428Z,24.10
2019-03-21T01:51:35.530Z,23.40
2019-03-21T01:53:11.771Z,23.83
2019-03-21T01:54:47.958Z,24.30
2019-03-21T01:56:24.492Z,22.20
2019-03-21T01:58:00.549Z,23.00
2019-03-21T01:59:36.879Z,25.17
2019-03-21T02:01:12.946Z,23.00
2019-03-21T02:02:51.449Z,25.17
2019-03-21T02:04:27.582Z,24.20
2019-03-21T02:06:03.864Z,25.00
2019-03-21T02:07:40.190Z,24.33
2019-03-21T02:09:16.431Z,25.37
2019-03-21T02:10:52.732Z,24.97
2019-03-21T02:12:29.049Z,25.23
2019-03-21T02:14:05.366Z,23.20
2019-03-21T02:15:41.678Z,21.93
2019-03-21T02:17:17.941Z,22.63
2019-03-21T02:18:54.104Z,21.13
2019-03-21T02:20:30.445Z,20.80
2019-03-21T02:22:06.681Z,20.87
2019-03-21T02:23:42.755Z,20.10
2019-03-21T02:25:31.333Z,20.67
2019-03-21T02:27:07.430Z,19.83
2019-03-21T02:28:43.661Z,21.63
2019-03-21T02:30:29.655Z,21.40
2019-03-21T02:32:05.858Z,21.77
2019-03-21T02:33:45.174Z,22.23
2019-03-21T02:35:22.448Z,21.23
2019-03-21T02:36:58.610Z,20.80
2019-03-21T02:38:34.598Z,21.20
2019-03-21T02:40:18.384Z,21.13
2019-03-21T02:41:55.753Z,21.10
2019-03-21T02:43:32.042Z,21.93
2019-03-21T02:45:12.657Z,20.03
2019-03-21T02:46:48.858Z,20.83
2019-03-21T02:48:24.909Z,21.40
2019-03-21T02:50:02.295Z,21.03
2019-03-21T02:51:38.490Z,22.03
2019-03-21T02:53:14.647Z,22.03
2019-03-21T02:54:50.719Z,23.00
2019-03-21T02:56:27.730Z,21.93
2019-03-21T02:58:04.041Z,20.90
2019-03-21T02:59:40.140Z,20.57
2019-03-21T03:01:16.435Z,21.27
2019-03-21T03:02:55.371Z,21.80
2019-03-21T03:04:31.436Z,22.47
2019-03-21T03:06:07.799Z,22.87
2019-03-21T03:07:43.865Z,21.63
2019-03-21T03:09:20.130Z,22.40
2019-03-21T03:11:12.535Z,23.07
2019-03-21T03:12:48.665Z,21.47
2019-03-21T03:14:25.004Z,21.13
2019-03-21T03:16:01.257Z,21.77
2019-03-21T03:17:37.551Z,21.23
2019-03-21T03:19:13.683Z,20.77
2019-03-21T03:20:49.855Z,19.07
2019-03-21T03:22:25.956Z,20.43
2019-03-21T03:24:01.954Z,20.97
2019-03-21T03:25:38.105Z,19.73
2019-03-21T03:27:14.271Z,21.17
2019-03-21T03:28:50.264Z,20.50
2019-03-21T03:30:27.669Z,19.43
2019-03-21T03:32:03.877Z,20.10
2019-03-21T03:33:40.042Z,21.23
2019-03-21T03:35:16.272Z,20.30
2019-03-21T03:36:52.265Z,20.33
2019-03-21T03:38:28.440Z,21.03
2019-03-21T03:40:07.903Z,20.43
2019-03-21T03:41:44.042Z,19.97
2019-03-21T03:43:20.277Z,19.90
2019-03-21T03:44:56.369Z,22.60
2019-03-21T03:46:32.563Z,21.67
2019-03-21T03:48:08.867Z,22.33
2019-03-21T03:49:45.058Z,21.37
2019-03-21T03:51:21.220Z,20.23
2019-03-21T03:52:57.644Z,19.80
2019-03-21T03:54:36.215Z,20.17
2019-03-21T03:56:12.509Z,21.33
2019-03-21T03:57:58.970Z,21.33
2019-03-21T03:59:35.168Z,21.50
2019-03-21T04:01:11.471Z,21.40
2019-03-21T04:02:50.551Z,21.63
2019-03-21T04:04:26.853Z,21.20
2019-03-21T04:06:03.256Z,20.80
2019-03-21T04:07:40.549Z,20.63
2019-03-21T04:09:16.706Z,18.90
2019-03-21T04:10:54.804Z,19.93
2019-03-21T04:12:31.014Z,19.70
2019-03-21T04:14:08.367Z,19.57
2019-03-21T04:15:52.714Z,17.97
2019-03-21T04:17:22.430Z,18.33
2019-03-21T04:18:58.614Z,17.73
2019-03-21T04:20:47.673Z,17.63
2019-03-21T04:22:23.838Z,16.73
2019-03-21T04:24:00.297Z,16.40
2019-03-21T04:25:40.966Z,16.60
2019-03-21T04:27:17.136Z,17.20
2019-03-21T04:28:53.072Z,16.63
2019-03-21T04:30:29.208Z,16.17
2019-03-21T04:32:05.469Z,16.40
2019-03-21T04:33:43.267Z,15.80
2019-03-21T04:35:19.571Z,17.23
2019-03-21T04:36:55.900Z,16.97
2019-03-21T04:38:32.127Z,16.97
2019-03-21T04:40:15.144Z,16.77
2019-03-21T04:41:51.241Z,17.13
2019-03-21T04:43:27.372Z,16.60
2019-03-21T04:45:04.705Z,15.37
2019-03-21T04:46:40.947Z,16.10
2019-03-21T04:48:17.182Z,15.37
2019-03-21T04:49:53.239Z,16.00
2019-03-21T04:51:30.598Z,15.73
2019-03-21T04:53:07.273Z,15.13
2019-03-21T04:54:43.366Z,15.37
2019-03-21T04:56:19.428Z,15.03
2019-03-21T04:57:55.795Z,16.33
2019-03-21T04:59:31.968Z,15.60
2019-03-21T05:01:08.048Z,15.40
2019-03-21T05:02:44.553Z,16.23
2019-03-21T05:04:20.725Z,16.50
2019-03-21T05:05:56.921Z,15.40
2019-03-21T05:07:33.016Z,15.43
2019-03-21T05:09:12.623Z,15.90
2019-03-21T05:10:48.787Z,15.53
2019-03-21T05:12:24.879Z,15.33
2019-03-21T05:14:00.882Z,17.63
2019-03-21T05:15:45.536Z,17.00
2019-03-21T05:17:21.619Z,16.43
2019-03-21T05:19:00.284Z,15.63
2019-03-21T05:20:36.448Z,15.47
2019-03-21T05:22:13.804Z,15.87
2019-03-21T05:23:49.902Z,15.30
2019-03-21T05:25:26.436Z,15.40
2019-03-21T05:27:02.599Z,14.63
2019-03-21T05:28:38.772Z,15.63
2019-03-21T05:30:34.513Z,16.03
2019-03-21T05:32:10.530Z,16.30
2019-03-21T05:33:46.663Z,15.30
2019-03-21T05:35:22.823Z,15.13
2019-03-21T05:36:58.889Z,15.07
2019-03-21T05:38:35.131Z,15.53
2019-03-21T05:40:17.646Z,14.83
2019-03-21T05:41:55.002Z,15.63
2019-03-21T05:43:44.827Z,16.37
2019-03-21T05:45:25.341Z,16.27
2019-03-21T05:47:01.434Z,16.27
2019-03-21T05:48:37.597Z,16.37
2019-03-21T05:50:17.408Z,16.80
2019-03-21T05:51:53.414Z,16.37
2019-03-21T05:53:29.592Z,14.93
2019-03-21T05:55:09.878Z,16.97
2019-03-21T05:56:46.937Z,16.57
2019-03-21T05:58:23.038Z,17.40
2019-03-21T05:59:59.197Z,16.83
2019-03-21T06:01:35.359Z,17.33
2019-03-21T06:03:21.238Z,18.13
2019-03-21T06:04:57.402Z,18.13
2019-03-21T06:06:44.126Z,17.60
2019-03-21T06:08:28.139Z,17.50
2019-03-21T06:10:10.534Z,18.77
2019-03-21T06:11:51.445Z,19.10
2019-03-21T06:13:27.534Z,19.83
2019-03-21T06:15:03.803Z,19.13
2019-03-21T06:16:41.166Z,19.57
2019-03-21T06:18:50.763Z,18.83
2019-03-21T06:20:31.373Z,19.83
2019-03-21T06:22:29.134Z,17.60
2019-03-21T06:24:32.253Z,18.23
2019-03-21T06:26:28.057Z,18.80
2019-03-21T06:28:04.116Z,19.20
2019-03-21T06:29:40.273Z,17.63
2019-03-21T06:31:16.468Z,17.60
2019-03-21T06:32:52.634Z,17.77
2019-03-21T06:34:28.727Z,18.93
2019-03-21T06:36:05.023Z,19.33
2019-03-21T06:37:41.189Z,18.87
2019-03-21T06:39:17.429Z,18.43
2019-03-21T06:40:53.499Z,17.20
2019-03-21T06:42:29.676Z,18.43
2019-03-21T06:44:05.919Z,18.73
2019-03-21T06:45:47.874Z,17.83
2019-03-21T06:47:19.930Z,18.43
2019-03-21T06:48:56.250Z,18.87
2019-03-21T06:50:32.357Z,18.53
2019-03-21T06:52:08.543Z,22.07
2019-03-21T06:53:44.612Z,33.20
2019-03-21T06:55:20.751Z,25.17
2019-03-21T06:56:56.909Z,18.53
2019-03-21T06:58:33.241Z,17.67
2019-03-21T07:00:11.939Z,18.57
2019-03-21T07:01:48.080Z,19.40
2019-03-21T07:03:24.180Z,19.43
2019-03-21T07:05:00.359Z,20.03
2019-03-21T07:06:36.509Z,20.47
2019-03-21T07:08:12.508Z,20.57
2019-03-21T07:09:48.748Z,18.33
2019-03-21T07:11:24.927Z,20.17
2019-03-21T07:13:01.156Z,19.40
2019-03-21T07:14:37.218Z,19.77
2019-03-21T07:16:13.627Z,19.80
2019-03-21T07:17:49.774Z,19.97
2019-03-21T07:19:25.846Z,20.87
2019-03-21T07:21:02.763Z,21.23
2019-03-21T07:22:39.072Z,20.67
2019-03-21T07:24:16.494Z,20.67
2019-03-21T07:25:52.818Z,20.97
2019-03-21T07:27:28.971Z,20.90
2019-03-21T07:29:04.912Z,25.43
2019-03-21T07:30:41.073Z,29.80
2019-03-21T07:32:17.170Z,27.80
2019-03-21T07:33:54.825Z,26.63
2019-03-21T07:35:31.011Z,24.47
2019-03-21T07:37:07.242Z,23.67
2019-03-21T07:38:43.376Z,21.17
2019-03-21T07:40:19.682Z,22.40
2019-03-21T07:41:56.023Z,22.77
2019-03-21T07:43:32.159Z,21.63
2019-03-21T07:45:11.929Z,19.93
2019-03-21T07:46:47.937Z,19.40
2019-03-21T07:48:24.115Z,19.40
2019-03-21T07:50:00.385Z,19.30
2019-03-21T07:51:36.515Z,21.23
2019-03-21T07:53:12.647Z,19.13
2019-03-21T07:54:50.002Z,20.20
2019-03-21T07:56:26.163Z,20.50
2019-03-21T07:58:02.328Z,19.93
2019-03-21T07:59:38.442Z,20.70
2019-03-21T08:01:14.646Z,20.77
2019-03-21T08:02:50.778Z,19.63
2019-03-21T08:04:27.012Z,20.23
2019-03-21T08:06:03.253Z,18.60
2019-03-21T08:07:39.483Z,21.13
2019-03-21T08:09:15.655Z,21.43
2019-03-21T08:10:51.815Z,20.63
2019-03-21T08:12:27.995Z,19.70
2019-03-21T08:14:04.400Z,20.40
2019-03-21T08:15:40.543Z,20.73
2019-03-21T08:17:16.762Z,20.93
2019-03-21T08:18:53.033Z,20.13
2019-03-21T08:20:29.330Z,20.17
2019-03-21T08:22:05.633Z,21.93
2019-03-21T08:23:41.793Z,21.13
2019-03-21T08:25:17.960Z,20.77
2019-03-21T08:26:54.086Z,22.63
2019-03-21T08:28:30.333Z,25.50
2019-03-21T08:30:34.661Z,22.63
2019-03-21T08:32:10.959Z,20.93
2019-03-21T08:33:47.555Z,20.73
2019-03-21T08:35:23.791Z,21.07
2019-03-21T08:37:00.031Z,20.23
2019-03-21T08:38:37.318Z,20.90
2019-03-21T08:40:13.920Z,20.60
2019-03-21T08:41:50.211Z,21.53
2019-03-21T08:43:26.276Z,21.23
2019-03-21T08:45:02.338Z,21.80
2019-03-21T08:46:38.573Z,21.83
2019-03-21T08:48:14.667Z,21.33
2019-03-21T08:49:50.754Z,23.47
2019-03-21T08:51:26.893Z,22.13
2019-03-21T08:53:15.083Z,21.30
2019-03-21T08:54:51.144Z,21.33
2019-03-21T08:56:27.479Z,22.57
2019-03-21T08:58:03.880Z,22.43
2019-03-21T08:59:39.943Z,21.50
2019-03-21T09:01:16.220Z,22.10
2019-03-21T09:02:52.418Z,22.80
2019-03-21T09:04:28.665Z,22.57
2019-03-21T09:06:06.903Z,23.93
2019-03-21T09:07:43.086Z,22.57
2019-03-21T09:09:19.223Z,22.63
2019-03-21T09:10:55.533Z,21.80
2019-03-21T09:12:31.521Z,21.70
2019-03-21T09:14:07.381Z,23.13
2019-03-21T09:15:43.537Z,24.67
2019-03-21T09:17:19.477Z,22.50
2019-03-21T09:18:55.821Z,22.97
2019-03-21T09:20:31.914Z,22.27
2019-03-21T09:22:08.150Z,22.57
2019-03-21T09:23:44.313Z,23.27
2019-03-21T09:25:20.363Z,23.80
2019-03-21T09:26:56.768Z,24.43
2019-03-21T09:28:32.872Z,23.57
2019-03-21T09:30:15.299Z,24.50
2019-03-21T09:31:51.503Z,22.83
2019-03-21T09:33:27.661Z,24.87
2019-03-21T09:35:04.883Z,24.10
2019-03-21T09:36:41.179Z,24.90
2019-03-21T09:38:17.279Z,24.87
2019-03-21T09:39:53.368Z,24.40
2019-03-21T09:41:29.503Z,25.30
2019-03-21T09:43:05.626Z,25.10
2019-03-21T09:44:41.787Z,25.00
2019-03-21T09:46:17.843Z,24.93
2019-03-21T09:47:54.004Z,25.90
2019-03-21T09:49:30.187Z,25.50
2019-03-21T09:51:06.366Z,23.93
2019-03-21T09:52:42.445Z,25.13
2019-03-21T09:54:18.576Z,25.40
2019-03-21T09:55:54.809Z,25.70
2019-03-21T09:57:30.900Z,26.03
2019-03-21T09:59:06.893Z,23.70
2019-03-21T10:00:43.046Z,24.00
2019-03-21T10:02:19.108Z,25.70
2019-03-21T10:03:55.248Z,24.60
2019-03-21T10:05:31.546Z,43.60
2019-03-21T10:07:07.749Z,31.43
2019-03-21T10:08:43.930Z,27.40
2019-03-21T10:10:36.674Z,31.20
2019-03-21T10:12:12.839Z,32.23
2019-03-21T10:13:49.017Z,30.03
2019-03-21T10:15:25.177Z,25.73
2019-03-21T10:17:01.346Z,29.40
2019-03-21T10:18:37.657Z,26.50
2019-03-21T10:20:13.806Z,26.03
2019-03-21T10:21:49.969Z,25.40
2019-03-21T10:23:26.302Z,26.30
2019-03-21T10:25:02.481Z,26.37
2019-03-21T10:26:38.590Z,26.73
2019-03-21T10:28:14.887Z,24.80
2019-03-21T10:29:51.004Z,24.20
2019-03-21T10:31:27.031Z,24.60
2019-03-21T10:33:04.737Z,25.20
2019-03-21T10:34:40.726Z,27.27
2019-03-21T10:36:16.882Z,26.23
2019-03-21T10:37:52.945Z,27.03
2019-03-21T10:39:29.103Z,26.77
2019-03-21T10:41:05.402Z,28.37
2019-03-21T10:42:41.569Z,27.43
2019-03-21T10:44:17.557Z,26.70
2019-03-21T10:45:54.915Z,28.30
2019-03-21T10:47:30.916Z,26.70
2019-03-21T10:49:07.048Z,24.83
2019-03-21T10:50:43.377Z,25.87
2019-03-21T10:52:19.687Z,24.03
2019-03-21T10:53:55.852Z,24.83
2019-03-21T10:55:32.155Z,23.77
2019-03-21T10:57:08.431Z,24.80
2019-03-21T10:58:44.740Z,25.43
2019-03-21T11:00:21.212Z,25.73
2019-03-21T11:02:06.816Z,26.00
2019-03-21T11:03:36.373Z,25.67
2019-03-21T11:05:12.723Z,25.43
2019-03-21T11:06:48.829Z,26.77
2019-03-21T11:08:25.076Z,25.70
2019-03-21T11:10:01.390Z,25.20
2019-03-21T11:11:37.529Z,26.03
2019-03-21T11:13:13.739Z,25.30
2019-03-21T11:14:49.911Z,26.27
2019-03-21T11:16:26.245Z,24.53
2019-03-21T11:18:02.651Z,26.40
2019-03-21T11:19:38.963Z,24.30
2019-03-21T11:21:15.213Z,26.20
2019-03-21T11:22:51.217Z,25.40
2019-03-21T11:24:27.386Z,25.87
2019-03-21T11:26:03.600Z,25.20
2019-03-21T11:27:39.774Z,25.87
2019-03-21T11:29:15.848Z,26.90
2019-03-21T11:30:51.986Z,25.93
2019-03-21T11:32:28.109Z,25.37
2019-03-21T11:34:04.412Z,26.30
2019-03-21T11:35:40.630Z,26.20
2019-03-21T11:37:16.940Z,24.80
2019-03-21T11:38:53.070Z,26.10
2019-03-21T11:40:29.580Z,25.57
2019-03-21T11:42:05.887Z,26.23
2019-03-21T11:43:42.164Z,27.10
2019-03-21T11:45:18.405Z,25.77
2019-03-21T11:46:54.727Z,27.13
2019-03-21T11:48:30.978Z,27.97
2019-03-21T11:50:08.605Z,26.60
2019-03-21T11:51:44.768Z,26.67
2019-03-21T11:53:21.002Z,25.77
2019-03-21T11:54:57.072Z,27.30
2019-03-21T11:56:33.313Z,28.50
2019-03-21T11:58:09.482Z,28.23
2019-03-21T11:59:51.665Z,27.07
2019-03-21T12:01:25.873Z,29.20
2019-03-21T12:03:04.101Z,30.93
2019-03-21T12:04:39.608Z,28.33
2019-03-21T12:06:15.778Z,26.27
2019-03-21T12:07:52.016Z,26.00
2019-03-21T12:09:28.686Z,27.30
2019-03-21T12:11:05.009Z,26.20
2019-03-21T12:12:41.253Z,25.33
2019-03-21T12:14:18.667Z,25.97
2019-03-21T12:15:54.773Z,26.57
2019-03-21T12:17:30.946Z,25.67
2019-03-21T12:19:07.014Z,24.80
2019-03-21T12:20:43.255Z,24.13
2019-03-21T12:22:29.513Z,26.17
2019-03-21T12:23:57.128Z,25.30
2019-03-21T12:25:33.371Z,25.33
2019-03-21T12:27:09.553Z,23.57
2019-03-21T12:28:45.710Z,24.10
2019-03-21T12:30:39.162Z,25.20
2019-03-21T12:32:15.298Z,23.37
2019-03-21T12:33:51.547Z,22.90
2019-03-21T12:35:27.654Z,23.07
2019-03-21T12:37:03.892Z,23.70
2019-03-21T12:38:39.963Z,23.50
2019-03-21T12:40:16.275Z,21.80
2019-03-21T12:41:52.435Z,23.13
2019-03-21T12:43:28.605Z,22.13
2019-03-21T12:45:10.366Z,23.20
2019-03-21T12:46:46.363Z,23.60
2019-03-21T12:48:22.536Z,24.23
2019-03-21T12:49:58.698Z,22.80
2019-03-21T12:51:35.011Z,23.50
2019-03-21T12:53:11.317Z,23.93
2019-03-21T12:54:47.496Z,23.27
2019-03-21T12:56:23.597Z,23.07
2019-03-21T12:57:59.708Z,24.63
2019-03-21T12:59:35.882Z,25.40
2019-03-21T13:01:12.064Z,25.63
2019-03-21T13:02:48.311Z,25.40
2019-03-21T13:04:24.386Z,26.57
2019-03-21T13:06:00.564Z,25.17
2019-03-21T13:07:36.777Z,24.77
2019-03-21T13:09:13.073Z,26.57
2019-03-21T13:10:49.369Z,28.10
2019-03-21T13:12:25.675Z,27.77
2019-03-21T13:14:01.756Z,26.73
2019-03-21T13:15:38.062Z,27.03
2019-03-21T13:17:14.309Z,26.67
2019-03-21T13:18:50.449Z,26.47
2019-03-21T13:20:26.531Z,26.60
2019-03-21T13:22:02.775Z,24.67
2019-03-21T13:23:38.772Z,25.87
2019-03-21T13:25:15.080Z,25.47
2019-03-21T13:26:51.216Z,26.07
2019-03-21T13:28:27.353Z,25.63
2019-03-21T13:30:04.995Z,26.03
2019-03-21T13:31:41.160Z,25.93
2019-03-21T13:33:18.532Z,26.53
2019-03-21T13:34:54.726Z,29.23
2019-03-21T13:36:30.962Z,31.27
2019-03-21T13:38:07.369Z,25.93
2019-03-21T13:39:43.495Z,24.77
2019-03-21T13:41:19.726Z,26.93
2019-03-21T13:42:55.800Z,29.10
2019-03-21T13:44:32.023Z,33.03
2019-03-21T13:46:08.162Z,26.40
2019-03-21T13:47:44.499Z,29.40
2019-03-21T13:49:20.501Z,27.63
2019-03-21T13:50:56.606Z,26.83
2019-03-21T13:52:32.768Z,26.87
2019-03-21T13:54:09.064Z,30.03
2019-03-21T13:55:45.209Z,29.03
2019-03-21T13:57:21.470Z,27.50
2019-03-21T13:58:57.779Z,25.30
2019-03-21T14:00:34.034Z,25.80
2019-03-21T14:02:10.105Z,26.57
2019-03-21T14:03:46.339Z,26.37
2019-03-21T14:05:22.639Z,25.40
2019-03-21T14:06:58.787Z,26.50
2019-03-21T14:08:35.067Z,26.37
2019-03-21T14:10:14.251Z,26.13
2019-03-21T14:11:50.419Z,26.67
2019-03-21T14:13:26.585Z,27.77
2019-03-21T14:15:02.821Z,28.10
2019-03-21T14:16:39.042Z,28.43
2019-03-21T14:18:15.079Z,30.20
2019-03-21T14:19:52.455Z,27.87
2019-03-21T14:21:28.454Z,27.87
2019-03-21T14:23:16.081Z,27.97
2019-03-21T14:24:42.329Z,27.07
2019-03-21T14:26:18.492Z,28.30
2019-03-21T14:27:54.658Z,28.70
2019-03-21T14:29:30.811Z,29.17
2019-03-21T14:31:07.131Z,28.90
2019-03-21T14:32:44.258Z,29.60
2019-03-21T14:34:20.385Z,28.33
2019-03-21T14:35:56.840Z,29.60
2019-03-21T14:37:32.971Z,30.00
2019-03-21T14:39:09.389Z,30.20
2019-03-21T14:40:45.512Z,33.43
2019-03-21T14:42:21.586Z,32.43
2019-03-21T14:43:57.842Z,30.63
2019-03-21T14:45:34.081Z,32.23
2019-03-21T14:47:11.451Z,32.87
2019-03-21T14:48:47.587Z,32.73
2019-03-21T14:50:23.907Z,31.60
2019-03-21T14:52:00.166Z,31.93
2019-03-21T14:53:38.134Z,31.30
2019-03-21T14:55:15.738Z,32.43
2019-03-21T14:56:51.876Z,33.53
2019-03-21T14:58:27.944Z,32.03
2019-03-21T15:00:06.944Z,31.37
2019-03-21T15:01:43.108Z,30.07
2019-03-21T15:03:19.360Z,32.17
2019-03-21T15:04:55.139Z,30.47
2019-03-21T15:06:31.330Z,32.27
2019-03-21T15:08:07.451Z,31.73
2019-03-21T15:09:43.831Z,32.87
2019-03-21T15:11:20.010Z,29.50
2019-03-21T15:12:56.136Z,28.90
2019-03-21T15:14:32.299Z,31.03
2019-03-21T15:16:08.609Z,30.67
2019-03-21T15:17:44.905Z,28.73
2019-03-21T15:19:21.071Z,30.57
2019-03-21T15:20:57.249Z,30.37
2019-03-21T15:22:33.371Z,31.27
2019-03-21T15:24:09.615Z,32.40
2019-03-21T15:25:45.940Z,28.53
2019-03-21T15:27:22.191Z,29.33
2019-03-21T15:28:58.332Z,29.93
2019-03-21T15:30:34.495Z,30.40
2019-03-21T15:32:10.494Z,29.00
2019-03-21T15:33:46.761Z,27.63
2019-03-21T15:35:23.165Z,28.10
2019-03-21T15:36:59.158Z,28.67
2019-03-21T15:38:35.262Z,28.63
2019-03-21T15:40:14.071Z,29.77
2019-03-21T15:41:50.196Z,32.10
2019-03-21T15:43:26.256Z,31.87
2019-03-21T15:45:20.595Z,32.50
2019-03-21T15:46:40.414Z,31.07
2019-03-21T15:48:16.473Z,29.50
2019-03-21T15:49:52.393Z,28.23
2019-03-21T15:51:29.647Z,30.07
2019-03-21T15:53:08.043Z,30.93
2019-03-21T15:54:44.272Z,33.03
2019-03-21T15:56:20.422Z,34.83
2019-03-21T15:57:56.892Z,36.03
2019-03-21T15:59:32.978Z,36.20
2019-03-21T16:01:09.107Z,34.50
2019-03-21T16:05:13.352Z,43.57
2019-03-21T16:06:49.583Z,41.97
2019-03-21T16:08:27.217Z,42.40
2019-03-21T16:10:04.855Z,38.50
2019-03-21T16:11:41.084Z,36.10
2019-03-21T16:13:17.322Z,33.87
2019-03-21T16:14:53.417Z,35.50
2019-03-21T16:16:29.634Z,38.03
2019-03-21T16:18:06.037Z,38.27
2019-03-21T16:19:42.097Z,40.53
2019-03-21T16:21:18.171Z,39.63
2019-03-21T16:22:54.615Z,38.17
2019-03-21T16:24:30.781Z,42.50
2019-03-21T16:26:07.100Z,46.23
2019-03-21T16:27:43.171Z,56.47
2019-03-21T16:29:19.261Z,44.40
2019-03-21T16:30:55.329Z,40.43
2019-03-21T16:32:31.532Z,54.50
2019-03-21T16:34:07.595Z,45.37
2019-03-21T16:35:43.839Z,41.53
2019-03-21T16:37:19.964Z,42.10
2019-03-21T16:38:56.142Z,55.47
2019-03-21T16:40:32.378Z,49.53
2019-03-21T16:42:08.595Z,63.40
2019-03-21T16:43:44.669Z,62.50
2019-03-21T16:45:21.400Z,70.63
2019-03-21T16:46:57.734Z,68.03
2019-03-21T16:48:33.835Z,63.70
2019-03-21T16:50:13.009Z,52.77
2019-03-21T16:51:49.279Z,54.53
2019-03-21T16:53:25.428Z,57.73
2019-03-21T16:55:01.492Z,76.23
2019-03-21T16:56:37.619Z,82.87
2019-03-21T16:58:13.692Z,110.87
2019-03-21T16:59:49.790Z,130.53
2019-03-21T17:01:27.207Z,66.70
2019-03-21T17:03:03.308Z,44.83
2019-03-21T17:04:39.460Z,61.37
2019-03-21T17:06:15.672Z,57.50
2019-03-21T17:07:53.260Z,81.37
2019-03-21T17:09:29.460Z,70.10
2019-03-21T17:11:05.808Z,69.43
2019-03-21T17:12:42.281Z,73.10
2019-03-21T17:14:18.493Z,50.70
2019-03-21T17:15:54.716Z,50.03
2019-03-21T17:17:30.874Z,55.17
2019-03-21T17:19:07.193Z,58.40
2019-03-21T17:20:43.492Z,61.63
2019-03-21T17:22:19.561Z,62.37
2019-03-21T17:23:55.758Z,61.83
2019-03-21T17:25:32.003Z,61.50
2019-03-21T17:27:08.238Z,63.60
2019-03-21T17:28:44.395Z,64.23
2019-03-21T17:30:20.698Z,66.97
2019-03-21T17:31:57.608Z,70.30
2019-03-21T17:33:33.769Z,67.60
2019-03-21T17:35:10.175Z,66.87
2019-03-21T17:36:46.308Z,82.13
2019-03-21T17:38:22.407Z,81.23
2019-03-21T17:39:58.605Z,70.13
2019-03-21T17:41:34.898Z,65.23
2019-03-21T17:43:11.151Z,65.53
2019-03-21T17:44:47.388Z,73.20
2019-03-21T17:46:23.554Z,81.73
2019-03-21T17:47:59.758Z,100.00
2019-03-21T17:49:35.928Z,114.63
2019-03-21T17:51:12.166Z,84.17
2019-03-21T17:52:49.069Z,81.43
2019-03-21T17:54:25.476Z,79.40
2019-03-21T17:56:01.945Z,75.23
2019-03-21T17:57:38.182Z,88.67
2019-03-21T17:59:14.345Z,79.07
2019-03-21T18:00:50.659Z,69.30
2019-03-21T18:02:26.959Z,69.20
2019-03-21T18:04:03.102Z,76.27
2019-03-21T18:05:39.268Z,81.50
2019-03-21T18:07:15.603Z,84.13
2019-03-21T18:08:51.834Z,85.27
2019-03-21T18:10:34.224Z,83.97
2019-03-21T18:12:10.207Z,89.43
2019-03-21T18:13:46.451Z,98.63
2019-03-21T18:15:23.952Z,98.97
2019-03-21T18:17:00.284Z,81.63
2019-03-21T18:18:36.507Z,75.33
2019-03-21T18:20:12.811Z,74.20
2019-03-21T18:21:48.972Z,78.83
2019-03-21T18:23:25.175Z,83.13
2019-03-21T18:25:01.267Z,87.13
2019-03-21T18:26:37.401Z,87.80
2019-03-21T18:28:13.543Z,90.10
2019-03-21T18:29:49.681Z,79.17
2019-03-21T18:31:25.923Z,74.67
2019-03-21T18:33:02.058Z,82.40
2019-03-21T18:34:38.143Z,86.33
2019-03-21T18:36:14.284Z,83.20
2019-03-21T18:37:51.753Z,92.73
2019-03-21T18:39:27.921Z,96.17
2019-03-21T18:41:04.616Z,92.60
2019-03-21T18:42:40.741Z,84.03
2019-03-21T18:44:18.545Z,86.67
2019-03-21T18:45:54.983Z,81.80
2019-03-21T18:47:31.183Z,77.53
2019-03-21T18:49:07.416Z,73.20
2019-03-21T18:50:44.776Z,73.20
2019-03-21T18:52:21.027Z,70.77
2019-03-21T18:53:57.122Z,68.77
2019-03-21T18:55:33.281Z,70.93
2019-03-21T18:57:09.499Z,66.60
2019-03-21T18:58:46.787Z,68.00
2019-03-21T19:00:23.289Z,65.97
2019-03-21T19:01:59.694Z,70.90
2019-03-21T19:03:35.810Z,71.50
2019-03-21T19:05:12.289Z,68.80
2019-03-21T19:06:51.359Z,73.37
2019-03-21T19:08:27.495Z,80.63
2019-03-21T19:10:05.104Z,85.23
2019-03-21T19:11:41.167Z,87.13
2019-03-21T19:13:17.342Z,90.60
2019-03-21T19:14:53.640Z,97.20
2019-03-21T19:16:32.143Z,102.67
2019-03-21T19:18:08.392Z,100.63
2019-03-21T19:19:44.584Z,99.97
2019-03-21T19:21:20.826Z,99.10
2019-03-21T19:22:57.022Z,95.97
2019-03-21T19:24:33.237Z,90.63
2019-03-21T19:26:09.097Z,84.87
2019-03-21T19:27:45.337Z,80.33
2019-03-21T19:29:21.493Z,84.00
2019-03-21T19:30:57.560Z,84.87
2019-03-21T19:32:33.759Z,78.83
2019-03-21T19:34:09.969Z,79.20
2019-03-21T19:35:46.972Z,78.90
2019-03-21T19:37:23.176Z,75.53
2019-03-21T19:38:59.317Z,78.20
2019-03-21T19:40:35.593Z,77.10
2019-03-21T19:42:11.753Z,77.43
2019-03-21T19:43:47.481Z,76.43
2019-03-21T19:45:23.790Z,91.00
2019-03-21T19:47:01.465Z,92.57
2019-03-21T19:48:45.694Z,92.77
2019-03-21T19:50:20.546Z,84.37
2019-03-21T19:51:56.830Z,80.77
2019-03-21T19:53:33.068Z,76.53
2019-03-21T19:55:10.570Z,75.13
2019-03-21T19:56:46.651Z,73.23
2019-03-21T19:58:23.102Z,68.87
2019-03-21T20:00:05.002Z,68.77
2019-03-21T20:01:41.404Z,68.27
2019-03-21T20:03:18.764Z,64.73
2019-03-21T20:04:55.006Z,63.73
2019-03-21T20:06:31.403Z,66.70
2019-03-21T20:08:07.759Z,63.87
2019-03-21T20:09:44.038Z,63.70
2019-03-21T20:11:21.732Z,64.13
2019-03-21T20:12:57.845Z,63.77
2019-03-21T20:14:34.325Z,62.77
2019-03-21T20:16:10.563Z,61.23
2019-03-21T20:17:46.962Z,63.57
2019-03-21T20:19:24.345Z,61.33
2019-03-21T20:21:00.770Z,65.80
2019-03-21T20:22:37.168Z,63.10
2019-03-21T20:24:13.384Z,67.67
2019-03-21T20:25:49.802Z,69.90
2019-03-21T20:27:26.066Z,73.17
2019-03-21T20:29:02.201Z,70.63
2019-03-21T20:30:38.364Z,72.03
2019-03-21T20:32:20.419Z,69.73
2019-03-21T20:33:52.568Z,67.80
2019-03-21T20:35:29.921Z,67.47
2019-03-21T20:37:06.228Z,68.73
2019-03-21T20:38:42.478Z,78.33
2019-03-21T20:40:20.455Z,77.20
2019-03-21T20:41:56.701Z,79.37
2019-03-21T20:43:32.869Z,79.40
2019-03-21T20:45:12.739Z,84.60
2019-03-21T20:46:48.739Z,85.90
2019-03-21T20:48:29.177Z,86.53
2019-03-21T20:50:10.289Z,95.67
2019-03-21T20:51:46.446Z,101.60